Overview Statistics Trail Chart Weather Telemetry Raw packets
 

This is the latest recevied weather packets stored in our database for station/object N4BBA. If no packets are shown the sender has not sent any weather packets the latest 10 day(s).

<< 40 41 42 43 44 45 46 >>
Time Temp. Humidity Pressure Rain* Wind** Luminosity Snow
1777411957 22.78° C 59% 1016.2 hPa 0 mm - 363 W/m² -
1777411656 22.78° C 59% 1016.3 hPa 0 mm - 372 W/m² -
1777411351 22.78° C 59% 1016.4 hPa 0 mm - 197 W/m² -
1777411050 22.22° C 59% 1016.4 hPa 0 mm - 423 W/m² -
1777410745 22.78° C 59% 1016.5 hPa 0 mm - 427 W/m² -
1777410439 22.22° C 59% 1016.5 hPa 0 mm - 375 W/m² -
1777410139 22.78° C 58% 1016.6 hPa 0 mm - 327 W/m² -
1777409839 22.22° C 59% 1016.5 hPa 0 mm - 362 W/m² -
1777409534 22.22° C 59% 1016.7 hPa 0 mm - 179 W/m² -
1777409230 22.22° C 58% 1016.9 hPa 0 mm - 283 W/m² -
1777408927 22.78° C 58% 1017 hPa 0 mm - 323 W/m² -
1777408623 22.22° C 57% 1017.1 hPa 0 mm - 548 W/m² -
1777408321 22.22° C 58% 1017.1 hPa 0 mm - 668 W/m² -
1777408018 21.67° C 58% 1017 hPa 0 mm - 295 W/m² -
1777407715 22.22° C 57% 1017.2 hPa 0 mm - 254 W/m² -
1777407410 22.78° C 56% 1017.3 hPa 0 mm - 319 W/m² -
1777407106 22.22° C 57% 1017.3 hPa 0 mm - 596 W/m² -
1777406805 21.67° C 57% 1017.2 hPa 0 mm - 612 W/m² -
1777406497 21.11° C 57% 1017.3 hPa 0 mm - 505 W/m² -
1777406192 21.11° C 56% 1017.5 hPa 0 mm - 304 W/m² -
1777405892 22.22° C 56% 1017.6 hPa 0 mm - 418 W/m² -
1777405588 21.67° C 55% 1017.6 hPa 0 mm - 635 W/m² -
1777405286 21.67° C 56% 1017.4 hPa 0 mm - 666 W/m² -
1777404985 22.22° C 56% 1017.9 hPa 0 mm - 739 W/m² -
1777404680 22.22° C 54% 1017.9 hPa 0 mm - 638 W/m² -

* Rain latest hour (hover to see other rain measurements)
** Current wind speed in m/s (hover to see current wind gust speed)